sensor_id;sensor_type;location;lat;lon;timestamp;P1;durP1;ratioP1;P2;durP2;ratioP2
65033;SDS011;51601;51.356;12.458;2022-10-31T00:02:40;13.98;;;5.93;;
65033;SDS011;51601;51.356;12.458;2022-10-31T00:07:00;14.97;;;6.10;;
65033;SDS011;51601;51.356;12.458;2022-10-31T00:11:21;13.57;;;6.10;;
65033;SDS011;51601;51.356;12.458;2022-10-31T00:15:36;12.20;;;5.57;;
65033;SDS011;51601;51.356;12.458;2022-10-31T00:19:53;13.77;;;5.53;;
65033;SDS011;51601;51.356;12.458;2022-10-31T00:24:14;12.95;;;5.75;;
65033;SDS011;51601;51.356;12.458;2022-10-31T00:28:34;12.40;;;5.85;;
65033;SDS011;51601;51.356;12.458;2022-10-31T00:32:48;13.17;;;5.97;;
65033;SDS011;51601;51.356;12.458;2022-10-31T00:37:02;17.70;;;6.10;;
65033;SDS011;51601;51.356;12.458;2022-10-31T00:41:16;13.23;;;5.53;;
65033;SDS011;51601;51.356;12.458;2022-10-31T00:45:32;16.33;;;5.68;;
65033;SDS011;51601;51.356;12.458;2022-10-31T00:49:45;14.93;;;6.20;;
65033;SDS011;51601;51.356;12.458;2022-10-31T00:53:59;12.35;;;5.63;;
65033;SDS011;51601;51.356;12.458;2022-10-31T00:58:13;14.40;;;5.95;;
65033;SDS011;51601;51.356;12.458;2022-10-31T01:02:28;11.60;;;5.57;;
65033;SDS011;51601;51.356;12.458;2022-10-31T01:06:42;12.38;;;5.45;;
65033;SDS011;51601;51.356;12.458;2022-10-31T01:11:00;13.77;;;6.05;;
65033;SDS011;51601;51.356;12.458;2022-10-31T01:15:18;15.40;;;6.17;;
65033;SDS011;51601;51.356;12.458;2022-10-31T01:19:35;13.68;;;6.15;;
65033;SDS011;51601;51.356;12.458;2022-10-31T01:23:49;17.13;;;6.50;;
65033;SDS011;51601;51.356;12.458;2022-10-31T01:28:03;12.98;;;5.63;;
65033;SDS011;51601;51.356;12.458;2022-10-31T01:32:18;13.53;;;5.97;;
65033;SDS011;51601;51.356;12.458;2022-10-31T01:36:33;15.40;;;6.43;;
65033;SDS011;51601;51.356;12.458;2022-10-31T01:40:49;15.00;;;5.93;;
65033;SDS011;51601;51.356;12.458;2022-10-31T01:45:04;14.97;;;6.87;;
65033;SDS011;51601;51.356;12.458;2022-10-31T01:49:20;15.10;;;6.38;;
65033;SDS011;51601;51.356;12.458;2022-10-31T01:53:38;14.05;;;6.05;;
65033;SDS011;51601;51.356;12.458;2022-10-31T01:57:55;13.37;;;5.90;;
65033;SDS011;51601;51.356;12.458;2022-10-31T02:02:12;13.32;;;6.82;;
65033;SDS011;51601;51.356;12.458;2022-10-31T02:06:32;14.25;;;6.60;;
65033;SDS011;51601;51.356;12.458;2022-10-31T02:10:53;15.18;;;6.25;;
65033;SDS011;51601;51.356;12.458;2022-10-31T02:15:09;14.33;;;5.97;;
65033;SDS011;51601;51.356;12.458;2022-10-31T02:19:29;17.10;;;6.38;;
65033;SDS011;51601;51.356;12.458;2022-10-31T02:24:03;15.50;;;6.30;;
65033;SDS011;51601;51.356;12.458;2022-10-31T02:28:44;14.50;;;6.57;;
65033;SDS011;51601;51.356;12.458;2022-10-31T02:33:24;15.88;;;6.20;;
65033;SDS011;51601;51.356;12.458;2022-10-31T02:37:43;18.00;;;6.68;;
65033;SDS011;51601;51.356;12.458;2022-10-31T02:42:04;13.60;;;6.40;;
65033;SDS011;51601;51.356;12.458;2022-10-31T02:46:23;22.15;;;6.85;;
65033;SDS011;51601;51.356;12.458;2022-10-31T02:50:47;12.65;;;6.25;;
65033;SDS011;51601;51.356;12.458;2022-10-31T02:55:10;16.10;;;6.47;;
65033;SDS011;51601;51.356;12.458;2022-10-31T02:59:25;14.37;;;6.17;;
65033;SDS011;51601;51.356;12.458;2022-10-31T03:03:46;15.77;;;6.30;;
65033;SDS011;51601;51.356;12.458;2022-10-31T03:08:14;15.40;;;7.10;;
65033;SDS011;51601;51.356;12.458;2022-10-31T03:12:37;16.10;;;7.13;;
65033;SDS011;51601;51.356;12.458;2022-10-31T03:16:59;14.48;;;6.80;;
65033;SDS011;51601;51.356;12.458;2022-10-31T03:21:18;16.40;;;6.60;;
65033;SDS011;51601;51.356;12.458;2022-10-31T03:25:37;14.63;;;6.90;;
65033;SDS011;51601;51.356;12.458;2022-10-31T03:29:55;15.68;;;6.78;;
65033;SDS011;51601;51.356;12.458;2022-10-31T03:34:13;17.00;;;7.13;;
65033;SDS011;51601;51.356;12.458;2022-10-31T03:38:29;14.90;;;6.95;;
65033;SDS011;51601;51.356;12.458;2022-10-31T03:42:49;20.77;;;6.80;;
65033;SDS011;51601;51.356;12.458;2022-10-31T03:47:07;16.45;;;6.57;;
65033;SDS011;51601;51.356;12.458;2022-10-31T03:51:22;13.63;;;7.00;;
65033;SDS011;51601;51.356;12.458;2022-10-31T03:55:39;15.13;;;7.23;;
65033;SDS011;51601;51.356;12.458;2022-10-31T03:59:58;17.65;;;6.75;;
65033;SDS011;51601;51.356;12.458;2022-10-31T04:04:17;14.02;;;7.00;;
65033;SDS011;51601;51.356;12.458;2022-10-31T04:08:36;15.80;;;7.20;;
65033;SDS011;51601;51.356;12.458;2022-10-31T04:12:57;16.45;;;7.10;;
65033;SDS011;51601;51.356;12.458;2022-10-31T04:17:26;14.27;;;6.90;;
65033;SDS011;51601;51.356;12.458;2022-10-31T04:21:44;13.65;;;6.30;;
65033;SDS011;51601;51.356;12.458;2022-10-31T04:25:58;14.27;;;6.43;;
65033;SDS011;51601;51.356;12.458;2022-10-31T04:30:12;18.05;;;7.45;;
65033;SDS011;51601;51.356;12.458;2022-10-31T04:34:27;16.60;;;7.30;;
65033;SDS011;51601;51.356;12.458;2022-10-31T04:38:41;13.97;;;6.73;;
65033;SDS011;51601;51.356;12.458;2022-10-31T04:43:09;15.07;;;6.75;;
65033;SDS011;51601;51.356;12.458;2022-10-31T04:47:23;15.65;;;7.47;;
65033;SDS011;51601;51.356;12.458;2022-10-31T04:51:39;13.87;;;7.03;;
65033;SDS011;51601;51.356;12.458;2022-10-31T04:55:54;14.00;;;7.32;;
65033;SDS011;51601;51.356;12.458;2022-10-31T05:00:10;14.07;;;7.00;;
65033;SDS011;51601;51.356;12.458;2022-10-31T05:04:25;14.07;;;7.15;;
65033;SDS011;51601;51.356;12.458;2022-10-31T05:08:40;18.20;;;7.27;;
65033;SDS011;51601;51.356;12.458;2022-10-31T05:12:56;17.88;;;7.55;;
65033;SDS011;51601;51.356;12.458;2022-10-31T05:17:31;17.42;;;8.10;;
65033;SDS011;51601;51.356;12.458;2022-10-31T05:22:11;19.00;;;8.13;;
65033;SDS011;51601;51.356;12.458;2022-10-31T05:26:26;16.02;;;8.00;;
65033;SDS011;51601;51.356;12.458;2022-10-31T05:30:40;18.02;;;8.77;;
65033;SDS011;51601;51.356;12.458;2022-10-31T05:34:58;17.07;;;8.60;;
65033;SDS011;51601;51.356;12.458;2022-10-31T05:39:43;18.55;;;8.43;;
65033;SDS011;51601;51.356;12.458;2022-10-31T05:44:01;18.90;;;7.70;;
65033;SDS011;51601;51.356;12.458;2022-10-31T05:48:19;16.40;;;8.25;;
65033;SDS011;51601;51.356;12.458;2022-10-31T05:52:56;16.43;;;8.17;;
65033;SDS011;51601;51.356;12.458;2022-10-31T05:57:18;15.77;;;7.70;;
65033;SDS011;51601;51.356;12.458;2022-10-31T06:01:33;20.23;;;7.90;;
65033;SDS011;51601;51.356;12.458;2022-10-31T06:05:50;15.63;;;8.30;;
65033;SDS011;51601;51.356;12.458;2022-10-31T06:10:09;17.23;;;7.53;;
65033;SDS011;51601;51.356;12.458;2022-10-31T06:14:23;19.35;;;7.93;;
65033;SDS011;51601;51.356;12.458;2022-10-31T06:18:40;20.33;;;8.93;;
65033;SDS011;51601;51.356;12.458;2022-10-31T06:22:55;15.38;;;8.02;;
65033;SDS011;51601;51.356;12.458;2022-10-31T06:27:10;14.70;;;7.55;;
65033;SDS011;51601;51.356;12.458;2022-10-31T06:31:24;18.15;;;8.10;;
65033;SDS011;51601;51.356;12.458;2022-10-31T06:35:39;17.57;;;8.03;;
65033;SDS011;51601;51.356;12.458;2022-10-31T06:40:00;19.20;;;7.75;;
65033;SDS011;51601;51.356;12.458;2022-10-31T06:44:21;14.68;;;7.57;;
65033;SDS011;51601;51.356;12.458;2022-10-31T06:48:54;16.43;;;7.80;;
65033;SDS011;51601;51.356;12.458;2022-10-31T06:53:22;17.88;;;8.35;;
65033;SDS011;51601;51.356;12.458;2022-10-31T06:57:36;13.63;;;6.90;;
65033;SDS011;51601;51.356;12.458;2022-10-31T07:01:50;15.97;;;7.33;;
65033;SDS011;51601;51.356;12.458;2022-10-31T07:06:04;16.40;;;7.65;;
65033;SDS011;51601;51.356;12.458;2022-10-31T07:10:20;18.67;;;8.35;;
65033;SDS011;51601;51.356;12.458;2022-10-31T07:14:40;17.88;;;8.48;;
65033;SDS011;51601;51.356;12.458;2022-10-31T07:18:55;16.53;;;8.00;;
65033;SDS011;51601;51.356;12.458;2022-10-31T07:23:09;18.38;;;8.10;;
65033;SDS011;51601;51.356;12.458;2022-10-31T07:27:26;15.63;;;7.43;;
65033;SDS011;51601;51.356;12.458;2022-10-31T07:31:40;15.83;;;7.90;;
65033;SDS011;51601;51.356;12.458;2022-10-31T07:36:05;14.57;;;7.13;;
65033;SDS011;51601;51.356;12.458;2022-10-31T07:40:20;18.38;;;7.75;;
65033;SDS011;51601;51.356;12.458;2022-10-31T07:44:38;18.13;;;7.13;;
65033;SDS011;51601;51.356;12.458;2022-10-31T07:49:30;15.55;;;7.32;;
65033;SDS011;51601;51.356;12.458;2022-10-31T07:54:02;14.40;;;7.10;;
65033;SDS011;51601;51.356;12.458;2022-10-31T07:58:17;11.73;;;7.47;;
65033;SDS011;51601;51.356;12.458;2022-10-31T08:02:32;13.30;;;7.27;;
65033;SDS011;51601;51.356;12.458;2022-10-31T08:07:06;14.25;;;7.28;;
65033;SDS011;51601;51.356;12.458;2022-10-31T08:11:22;14.35;;;6.85;;
65033;SDS011;51601;51.356;12.458;2022-10-31T08:15:37;14.00;;;7.13;;
65033;SDS011;51601;51.356;12.458;2022-10-31T08:19:54;14.15;;;6.72;;
65033;SDS011;51601;51.356;12.458;2022-10-31T08:24:13;13.27;;;7.18;;
65033;SDS011;51601;51.356;12.458;2022-10-31T08:28:27;13.67;;;6.83;;
65033;SDS011;51601;51.356;12.458;2022-10-31T08:32:41;14.00;;;6.53;;
65033;SDS011;51601;51.356;12.458;2022-10-31T08:37:22;13.48;;;6.70;;
65033;SDS011;51601;51.356;12.458;2022-10-31T08:41:39;12.70;;;6.78;;
65033;SDS011;51601;51.356;12.458;2022-10-31T08:45:56;13.73;;;6.87;;
65033;SDS011;51601;51.356;12.458;2022-10-31T08:50:13;15.38;;;7.50;;
65033;SDS011;51601;51.356;12.458;2022-10-31T08:54:32;15.75;;;7.20;;
65033;SDS011;51601;51.356;12.458;2022-10-31T08:59:04;14.03;;;7.67;;
65033;SDS011;51601;51.356;12.458;2022-10-31T09:03:50;14.52;;;8.27;;
65033;SDS011;51601;51.356;12.458;2022-10-31T09:08:05;16.95;;;8.95;;
65033;SDS011;51601;51.356;12.458;2022-10-31T09:12:29;17.90;;;9.37;;
65033;SDS011;51601;51.356;12.458;2022-10-31T09:17:02;19.08;;;9.15;;
65033;SDS011;51601;51.356;12.458;2022-10-31T09:21:34;25.27;;;10.43;;
65033;SDS011;51601;51.356;12.458;2022-10-31T09:25:50;25.55;;;12.02;;
65033;SDS011;51601;51.356;12.458;2022-10-31T09:30:31;30.53;;;14.93;;
65033;SDS011;51601;51.356;12.458;2022-10-31T09:34:50;32.35;;;15.70;;
65033;SDS011;51601;51.356;12.458;2022-10-31T09:39:04;31.42;;;15.00;;
65033;SDS011;51601;51.356;12.458;2022-10-31T09:43:22;31.13;;;16.63;;
65033;SDS011;51601;51.356;12.458;2022-10-31T09:47:52;33.15;;;16.52;;
65033;SDS011;51601;51.356;12.458;2022-10-31T09:52:16;30.33;;;15.13;;
65033;SDS011;51601;51.356;12.458;2022-10-31T09:56:34;31.53;;;15.97;;
65033;SDS011;51601;51.356;12.458;2022-10-31T10:00:48;31.63;;;17.75;;
65033;SDS011;51601;51.356;12.458;2022-10-31T10:05:04;36.40;;;17.70;;
65033;SDS011;51601;51.356;12.458;2022-10-31T10:09:26;40.13;;;19.27;;
65033;SDS011;51601;51.356;12.458;2022-10-31T10:18:47;34.47;;;18.70;;
65033;SDS011;51601;51.356;12.458;2022-10-31T10:28:00;37.63;;;18.97;;
65033;SDS011;51601;51.356;12.458;2022-10-31T10:32:22;37.88;;;18.67;;
65033;SDS011;51601;51.356;12.458;2022-10-31T10:36:38;40.47;;;20.30;;
65033;SDS011;51601;51.356;12.458;2022-10-31T10:40:57;38.67;;;19.37;;
65033;SDS011;51601;51.356;12.458;2022-10-31T10:45:14;35.85;;;18.75;;
65033;SDS011;51601;51.356;12.458;2022-10-31T10:49:48;35.75;;;18.80;;
65033;SDS011;51601;51.356;12.458;2022-10-31T10:54:08;39.42;;;18.73;;
65033;SDS011;51601;51.356;12.458;2022-10-31T10:58:30;38.13;;;20.23;;
65033;SDS011;51601;51.356;12.458;2022-10-31T11:02:44;41.03;;;19.88;;
65033;SDS011;51601;51.356;12.458;2022-10-31T11:07:01;39.75;;;18.98;;
65033;SDS011;51601;51.356;12.458;2022-10-31T11:11:23;39.10;;;20.00;;
65033;SDS011;51601;51.356;12.458;2022-10-31T11:15:51;35.60;;;19.15;;
65033;SDS011;51601;51.356;12.458;2022-10-31T11:20:26;39.90;;;19.92;;
65033;SDS011;51601;51.356;12.458;2022-10-31T11:24:43;39.50;;;19.37;;
65033;SDS011;51601;51.356;12.458;2022-10-31T11:28:58;39.97;;;19.63;;
65033;SDS011;51601;51.356;12.458;2022-10-31T11:33:20;38.50;;;19.88;;
65033;SDS011;51601;51.356;12.458;2022-10-31T11:37:40;41.83;;;20.20;;
65033;SDS011;51601;51.356;12.458;2022-10-31T11:41:59;35.93;;;18.37;;
65033;SDS011;51601;51.356;12.458;2022-10-31T11:46:20;38.03;;;19.80;;
65033;SDS011;51601;51.356;12.458;2022-10-31T11:50:39;38.95;;;18.77;;
65033;SDS011;51601;51.356;12.458;2022-10-31T11:54:55;39.43;;;20.07;;
65033;SDS011;51601;51.356;12.458;2022-10-31T11:59:18;39.47;;;19.35;;
65033;SDS011;51601;51.356;12.458;2022-10-31T12:03:38;43.65;;;20.38;;
65033;SDS011;51601;51.356;12.458;2022-10-31T12:08:06;40.90;;;19.40;;
65033;SDS011;51601;51.356;12.458;2022-10-31T12:12:34;39.10;;;19.83;;
65033;SDS011;51601;51.356;12.458;2022-10-31T12:17:08;39.05;;;20.02;;
65033;SDS011;51601;51.356;12.458;2022-10-31T12:21:31;41.72;;;20.27;;
65033;SDS011;51601;51.356;12.458;2022-10-31T12:25:57;40.70;;;19.07;;
65033;SDS011;51601;51.356;12.458;2022-10-31T12:30:21;40.58;;;20.33;;
65033;SDS011;51601;51.356;12.458;2022-10-31T12:34:43;47.95;;;22.13;;
65033;SDS011;51601;51.356;12.458;2022-10-31T12:39:15;41.20;;;20.87;;
65033;SDS011;51601;51.356;12.458;2022-10-31T12:43:52;43.60;;;19.45;;
65033;SDS011;51601;51.356;12.458;2022-10-31T12:48:20;41.85;;;20.70;;
65033;SDS011;51601;51.356;12.458;2022-10-31T12:52:46;43.70;;;21.40;;
65033;SDS011;51601;51.356;12.458;2022-10-31T12:57:12;44.35;;;19.98;;
65033;SDS011;51601;51.356;12.458;2022-10-31T13:01:36;42.85;;;20.15;;
65033;SDS011;51601;51.356;12.458;2022-10-31T13:05:57;45.83;;;20.83;;
65033;SDS011;51601;51.356;12.458;2022-10-31T13:10:16;42.97;;;20.17;;
65033;SDS011;51601;51.356;12.458;2022-10-31T13:14:34;42.28;;;20.45;;
65033;SDS011;51601;51.356;12.458;2022-10-31T13:18:54;48.95;;;20.65;;
65033;SDS011;51601;51.356;12.458;2022-10-31T13:23:14;45.00;;;21.00;;
65033;SDS011;51601;51.356;12.458;2022-10-31T13:27:55;40.80;;;19.17;;
65033;SDS011;51601;51.356;12.458;2022-10-31T13:32:12;38.55;;;18.90;;
65033;SDS011;51601;51.356;12.458;2022-10-31T13:36:29;41.90;;;19.87;;
65033;SDS011;51601;51.356;12.458;2022-10-31T13:40:50;43.13;;;19.45;;
65033;SDS011;51601;51.356;12.458;2022-10-31T13:45:11;42.15;;;20.55;;
65033;SDS011;51601;51.356;12.458;2022-10-31T13:49:36;45.00;;;19.70;;
65033;SDS011;51601;51.356;12.458;2022-10-31T13:53:58;40.17;;;19.97;;
65033;SDS011;51601;51.356;12.458;2022-10-31T13:58:22;41.28;;;20.00;;
65033;SDS011;51601;51.356;12.458;2022-10-31T14:02:43;43.92;;;20.20;;
65033;SDS011;51601;51.356;12.458;2022-10-31T14:07:04;45.20;;;21.07;;
65033;SDS011;51601;51.356;12.458;2022-10-31T14:11:22;44.95;;;20.77;;
65033;SDS011;51601;51.356;12.458;2022-10-31T14:15:52;43.25;;;21.13;;
65033;SDS011;51601;51.356;12.458;2022-10-31T14:20:21;45.17;;;21.07;;
65033;SDS011;51601;51.356;12.458;2022-10-31T14:24:52;44.78;;;21.23;;
65033;SDS011;51601;51.356;12.458;2022-10-31T14:29:23;46.75;;;23.65;;
65033;SDS011;51601;51.356;12.458;2022-10-31T14:33:40;53.17;;;23.90;;
65033;SDS011;51601;51.356;12.458;2022-10-31T14:42:51;49.50;;;23.15;;
65033;SDS011;51601;51.356;12.458;2022-10-31T14:47:28;53.03;;;22.55;;
65033;SDS011;51601;51.356;12.458;2022-10-31T14:51:50;48.20;;;22.90;;
65033;SDS011;51601;51.356;12.458;2022-10-31T14:56:05;46.45;;;21.88;;
65033;SDS011;51601;51.356;12.458;2022-10-31T15:00:24;47.83;;;23.23;;
65033;SDS011;51601;51.356;12.458;2022-10-31T15:04:39;53.17;;;24.70;;
65033;SDS011;51601;51.356;12.458;2022-10-31T15:08:55;49.85;;;22.25;;
65033;SDS011;51601;51.356;12.458;2022-10-31T15:13:09;48.35;;;22.67;;
65033;SDS011;51601;51.356;12.458;2022-10-31T15:17:24;51.97;;;24.67;;
65033;SDS011;51601;51.356;12.458;2022-10-31T15:21:41;55.20;;;24.10;;
65033;SDS011;51601;51.356;12.458;2022-10-31T15:25:58;49.88;;;23.83;;
65033;SDS011;51601;51.356;12.458;2022-10-31T15:30:16;50.70;;;24.52;;
65033;SDS011;51601;51.356;12.458;2022-10-31T15:34:32;58.07;;;26.13;;
65033;SDS011;51601;51.356;12.458;2022-10-31T15:38:52;59.90;;;26.98;;
65033;SDS011;51601;51.356;12.458;2022-10-31T15:43:10;56.22;;;26.90;;
65033;SDS011;51601;51.356;12.458;2022-10-31T15:47:29;57.50;;;26.40;;
65033;SDS011;51601;51.356;12.458;2022-10-31T15:51:44;60.75;;;27.35;;
65033;SDS011;51601;51.356;12.458;2022-10-31T15:56:07;60.90;;;26.80;;
65033;SDS011;51601;51.356;12.458;2022-10-31T16:00:25;70.43;;;29.85;;
65033;SDS011;51601;51.356;12.458;2022-10-31T16:04:47;57.20;;;27.83;;
65033;SDS011;51601;51.356;12.458;2022-10-31T16:09:03;62.33;;;28.02;;
65033;SDS011;51601;51.356;12.458;2022-10-31T16:13:33;66.18;;;28.63;;
65033;SDS011;51601;51.356;12.458;2022-10-31T16:17:49;65.33;;;29.90;;
65033;SDS011;51601;51.356;12.458;2022-10-31T16:22:13;61.55;;;29.55;;
65033;SDS011;51601;51.356;12.458;2022-10-31T16:26:32;65.13;;;30.48;;
65033;SDS011;51601;51.356;12.458;2022-10-31T16:30:48;67.87;;;31.20;;
65033;SDS011;51601;51.356;12.458;2022-10-31T16:35:17;63.15;;;30.20;;
65033;SDS011;51601;51.356;12.458;2022-10-31T16:39:36;67.07;;;29.73;;
65033;SDS011;51601;51.356;12.458;2022-10-31T16:43:50;63.58;;;30.40;;
65033;SDS011;51601;51.356;12.458;2022-10-31T16:48:06;64.73;;;30.77;;
65033;SDS011;51601;51.356;12.458;2022-10-31T16:52:23;64.80;;;30.17;;
65033;SDS011;51601;51.356;12.458;2022-10-31T16:56:37;67.43;;;33.35;;
65033;SDS011;51601;51.356;12.458;2022-10-31T17:00:51;67.60;;;32.47;;
65033;SDS011;51601;51.356;12.458;2022-10-31T17:05:09;71.50;;;34.33;;
65033;SDS011;51601;51.356;12.458;2022-10-31T17:09:26;73.80;;;34.00;;
65033;SDS011;51601;51.356;12.458;2022-10-31T17:13:40;69.17;;;33.17;;
65033;SDS011;51601;51.356;12.458;2022-10-31T17:17:57;72.00;;;33.30;;
65033;SDS011;51601;51.356;12.458;2022-10-31T17:22:12;76.43;;;34.05;;
65033;SDS011;51601;51.356;12.458;2022-10-31T17:26:30;64.30;;;32.40;;
65033;SDS011;51601;51.356;12.458;2022-10-31T17:31:04;63.43;;;31.13;;
65033;SDS011;51601;51.356;12.458;2022-10-31T17:35:55;67.88;;;32.78;;
65033;SDS011;51601;51.356;12.458;2022-10-31T17:40:12;61.22;;;30.65;;
65033;SDS011;51601;51.356;12.458;2022-10-31T17:44:53;68.70;;;33.00;;
65033;SDS011;51601;51.356;12.458;2022-10-31T17:49:09;73.88;;;33.65;;
65033;SDS011;51601;51.356;12.458;2022-10-31T17:53:23;67.57;;;33.17;;
65033;SDS011;51601;51.356;12.458;2022-10-31T17:57:41;58.50;;;31.60;;
65033;SDS011;51601;51.356;12.458;2022-10-31T18:01:59;69.22;;;33.90;;
65033;SDS011;51601;51.356;12.458;2022-10-31T18:06:20;62.42;;;33.63;;
65033;SDS011;51601;51.356;12.458;2022-10-31T18:10:38;63.28;;;33.03;;
65033;SDS011;51601;51.356;12.458;2022-10-31T18:14:53;60.23;;;32.17;;
65033;SDS011;51601;51.356;12.458;2022-10-31T18:19:10;69.57;;;33.60;;
65033;SDS011;51601;51.356;12.458;2022-10-31T18:23:25;64.88;;;33.25;;
65033;SDS011;51601;51.356;12.458;2022-10-31T18:27:46;69.63;;;34.80;;
65033;SDS011;51601;51.356;12.458;2022-10-31T18:32:04;70.78;;;36.90;;
65033;SDS011;51601;51.356;12.458;2022-10-31T18:36:20;70.32;;;36.08;;
65033;SDS011;51601;51.356;12.458;2022-10-31T18:40:36;75.67;;;37.30;;
65033;SDS011;51601;51.356;12.458;2022-10-31T18:44:50;68.80;;;36.05;;
65033;SDS011;51601;51.356;12.458;2022-10-31T18:49:05;71.68;;;37.15;;
65033;SDS011;51601;51.356;12.458;2022-10-31T18:53:19;73.90;;;37.85;;
65033;SDS011;51601;51.356;12.458;2022-10-31T18:57:33;72.47;;;35.70;;
65033;SDS011;51601;51.356;12.458;2022-10-31T19:01:47;68.22;;;35.75;;
65033;SDS011;51601;51.356;12.458;2022-10-31T19:06:02;66.75;;;35.75;;
65033;SDS011;51601;51.356;12.458;2022-10-31T19:10:20;72.87;;;37.87;;
65033;SDS011;51601;51.356;12.458;2022-10-31T19:14:51;77.80;;;37.08;;
65033;SDS011;51601;51.356;12.458;2022-10-31T19:19:31;67.28;;;36.03;;
65033;SDS011;51601;51.356;12.458;2022-10-31T19:23:50;67.70;;;37.27;;
65033;SDS011;51601;51.356;12.458;2022-10-31T19:28:22;69.00;;;35.35;;
65033;SDS011;51601;51.356;12.458;2022-10-31T19:32:41;77.18;;;37.13;;
65033;SDS011;51601;51.356;12.458;2022-10-31T19:37:07;64.57;;;34.80;;
65033;SDS011;51601;51.356;12.458;2022-10-31T19:41:31;60.23;;;31.33;;
65033;SDS011;51601;51.356;12.458;2022-10-31T19:45:59;60.08;;;32.15;;
65033;SDS011;51601;51.356;12.458;2022-10-31T19:50:23;57.17;;;30.23;;
65033;SDS011;51601;51.356;12.458;2022-10-31T19:54:55;55.57;;;31.00;;
65033;SDS011;51601;51.356;12.458;2022-10-31T19:59:10;56.90;;;28.42;;
65033;SDS011;51601;51.356;12.458;2022-10-31T20:03:27;55.67;;;28.15;;
65033;SDS011;51601;51.356;12.458;2022-10-31T20:08:03;49.43;;;27.43;;
65033;SDS011;51601;51.356;12.458;2022-10-31T20:12:18;51.38;;;27.50;;
65033;SDS011;51601;51.356;12.458;2022-10-31T20:16:33;52.92;;;28.05;;
65033;SDS011;51601;51.356;12.458;2022-10-31T20:20:59;55.30;;;28.00;;
65033;SDS011;51601;51.356;12.458;2022-10-31T20:25:23;52.60;;;27.83;;
65033;SDS011;51601;51.356;12.458;2022-10-31T20:29:43;56.03;;;28.63;;
65033;SDS011;51601;51.356;12.458;2022-10-31T20:34:08;54.78;;;28.77;;
65033;SDS011;51601;51.356;12.458;2022-10-31T20:38:31;52.70;;;28.27;;
65033;SDS011;51601;51.356;12.458;2022-10-31T20:42:55;52.42;;;28.02;;
65033;SDS011;51601;51.356;12.458;2022-10-31T20:47:09;53.50;;;28.00;;
65033;SDS011;51601;51.356;12.458;2022-10-31T20:51:28;48.83;;;25.20;;
65033;SDS011;51601;51.356;12.458;2022-10-31T20:55:43;43.60;;;24.17;;
65033;SDS011;51601;51.356;12.458;2022-10-31T21:00:21;41.90;;;22.90;;
65033;SDS011;51601;51.356;12.458;2022-10-31T21:04:35;42.80;;;23.88;;
65033;SDS011;51601;51.356;12.458;2022-10-31T21:08:53;37.70;;;21.17;;
65033;SDS011;51601;51.356;12.458;2022-10-31T21:13:11;44.88;;;23.35;;
65033;SDS011;51601;51.356;12.458;2022-10-31T21:17:24;44.45;;;23.33;;
65033;SDS011;51601;51.356;12.458;2022-10-31T21:21:42;40.03;;;23.20;;
65033;SDS011;51601;51.356;12.458;2022-10-31T21:25:58;43.47;;;23.80;;
65033;SDS011;51601;51.356;12.458;2022-10-31T21:30:17;43.50;;;23.55;;
65033;SDS011;51601;51.356;12.458;2022-10-31T21:34:31;46.03;;;22.87;;
65033;SDS011;51601;51.356;12.458;2022-10-31T21:38:49;46.30;;;23.27;;
65033;SDS011;51601;51.356;12.458;2022-10-31T21:43:04;42.45;;;23.75;;
65033;SDS011;51601;51.356;12.458;2022-10-31T21:47:18;49.00;;;24.13;;
65033;SDS011;51601;51.356;12.458;2022-10-31T21:51:35;39.07;;;23.30;;
65033;SDS011;51601;51.356;12.458;2022-10-31T21:55:49;39.97;;;23.58;;
65033;SDS011;51601;51.356;12.458;2022-10-31T22:00:05;39.28;;;22.85;;
65033;SDS011;51601;51.356;12.458;2022-10-31T22:04:24;39.80;;;22.37;;
65033;SDS011;51601;51.356;12.458;2022-10-31T22:08:38;37.00;;;22.00;;
65033;SDS011;51601;51.356;12.458;2022-10-31T22:12:57;38.40;;;22.55;;
65033;SDS011;51601;51.356;12.458;2022-10-31T22:17:24;34.17;;;22.20;;
65033;SDS011;51601;51.356;12.458;2022-10-31T22:21:42;37.20;;;21.95;;
65033;SDS011;51601;51.356;12.458;2022-10-31T22:26:03;37.38;;;22.48;;
65033;SDS011;51601;51.356;12.458;2022-10-31T22:30:18;39.70;;;20.80;;
65033;SDS011;51601;51.356;12.458;2022-10-31T22:34:33;46.00;;;21.90;;
65033;SDS011;51601;51.356;12.458;2022-10-31T22:38:47;39.50;;;21.08;;
65033;SDS011;51601;51.356;12.458;2022-10-31T22:43:01;42.10;;;22.60;;
65033;SDS011;51601;51.356;12.458;2022-10-31T22:47:15;38.83;;;22.77;;
65033;SDS011;51601;51.356;12.458;2022-10-31T22:51:31;39.70;;;23.05;;
65033;SDS011;51601;51.356;12.458;2022-10-31T22:55:47;42.55;;;24.10;;
65033;SDS011;51601;51.356;12.458;2022-10-31T23:00:02;42.07;;;24.27;;
65033;SDS011;51601;51.356;12.458;2022-10-31T23:04:16;38.33;;;22.88;;
65033;SDS011;51601;51.356;12.458;2022-10-31T23:08:33;36.33;;;20.55;;
65033;SDS011;51601;51.356;12.458;2022-10-31T23:12:47;39.03;;;22.20;;
65033;SDS011;51601;51.356;12.458;2022-10-31T23:17:19;33.97;;;20.53;;
65033;SDS011;51601;51.356;12.458;2022-10-31T23:21:33;39.63;;;22.90;;
65033;SDS011;51601;51.356;12.458;2022-10-31T23:26:08;41.53;;;21.75;;
65033;SDS011;51601;51.356;12.458;2022-10-31T23:30:39;38.07;;;23.10;;
65033;SDS011;51601;51.356;12.458;2022-10-31T23:34:54;35.90;;;20.52;;
65033;SDS011;51601;51.356;12.458;2022-10-31T23:39:08;44.50;;;22.35;;
65033;SDS011;51601;51.356;12.458;2022-10-31T23:43:23;36.33;;;21.87;;
65033;SDS011;51601;51.356;12.458;2022-10-31T23:47:37;40.97;;;21.52;;
65033;SDS011;51601;51.356;12.458;2022-10-31T23:51:54;38.80;;;22.67;;
65033;SDS011;51601;51.356;12.458;2022-10-31T23:56:08;37.88;;;21.33;;
